sensor_id;sensor_type;location;lat;lon;timestamp;P1;durP1;ratioP1;P2;durP2;ratioP2
52248;SDS011;38541;48.130;8.378;2023-04-24T00:01:03;0.95;;;0.70;;
52248;SDS011;38541;48.130;8.378;2023-04-24T00:03:33;0.55;;;0.50;;
52248;SDS011;38541;48.130;8.378;2023-04-24T00:06:01;0.60;;;0.60;;
52248;SDS011;38541;48.130;8.378;2023-04-24T00:08:28;1.30;;;0.70;;
52248;SDS011;38541;48.130;8.378;2023-04-24T00:10:55;0.77;;;0.70;;
52248;SDS011;38541;48.130;8.378;2023-04-24T00:13:21;0.90;;;0.63;;
52248;SDS011;38541;48.130;8.378;2023-04-24T00:15:48;1.38;;;0.60;;
52248;SDS011;38541;48.130;8.378;2023-04-24T00:18:14;0.63;;;0.63;;
52248;SDS011;38541;48.130;8.378;2023-04-24T00:20:41;1.15;;;0.95;;
52248;SDS011;38541;48.130;8.378;2023-04-24T00:23:07;0.70;;;0.70;;
52248;SDS011;38541;48.130;8.378;2023-04-24T00:25:34;0.75;;;0.60;;
52248;SDS011;38541;48.130;8.378;2023-04-24T00:28:00;0.50;;;0.50;;
52248;SDS011;38541;48.130;8.378;2023-04-24T00:30:27;0.50;;;0.50;;
52248;SDS011;38541;48.130;8.378;2023-04-24T00:32:53;0.70;;;0.70;;
52248;SDS011;38541;48.130;8.378;2023-04-24T00:35:22;0.57;;;0.57;;
52248;SDS011;38541;48.130;8.378;2023-04-24T00:37:49;0.68;;;0.50;;
52248;SDS011;38541;48.130;8.378;2023-04-24T00:40:16;0.88;;;0.77;;
52248;SDS011;38541;48.130;8.378;2023-04-24T00:42:43;0.70;;;0.60;;
52248;SDS011;38541;48.130;8.378;2023-04-24T00:45:11;0.60;;;0.60;;
52248;SDS011;38541;48.130;8.378;2023-04-24T00:47:38;0.50;;;0.50;;
52248;SDS011;38541;48.130;8.378;2023-04-24T00:50:05;1.58;;;0.70;;
52248;SDS011;38541;48.130;8.378;2023-04-24T00:52:33;0.70;;;0.70;;
52248;SDS011;38541;48.130;8.378;2023-04-24T00:55:00;0.93;;;0.63;;
52248;SDS011;38541;48.130;8.378;2023-04-24T00:57:26;0.82;;;0.70;;
52248;SDS011;38541;48.130;8.378;2023-04-24T00:59:53;1.67;;;0.60;;
52248;SDS011;38541;48.130;8.378;2023-04-24T01:02:20;0.70;;;0.70;;
52248;SDS011;38541;48.130;8.378;2023-04-24T01:04:48;1.23;;;0.60;;
52248;SDS011;38541;48.130;8.378;2023-04-24T01:07:18;0.60;;;0.60;;
52248;SDS011;38541;48.130;8.378;2023-04-24T01:09:47;2.03;;;0.82;;
52248;SDS011;38541;48.130;8.378;2023-04-24T01:12:15;1.13;;;0.60;;
52248;SDS011;38541;48.130;8.378;2023-04-24T01:14:43;0.70;;;0.70;;
52248;SDS011;38541;48.130;8.378;2023-04-24T01:17:10;1.33;;;0.60;;
52248;SDS011;38541;48.130;8.378;2023-04-24T01:19:37;1.17;;;0.70;;
52248;SDS011;38541;48.130;8.378;2023-04-24T01:22:08;0.77;;;0.77;;
52248;SDS011;38541;48.130;8.378;2023-04-24T01:24:37;0.77;;;0.60;;
52248;SDS011;38541;48.130;8.378;2023-04-24T01:27:04;0.70;;;0.70;;
52248;SDS011;38541;48.130;8.378;2023-04-24T01:29:31;0.60;;;0.60;;
52248;SDS011;38541;48.130;8.378;2023-04-24T01:31:58;1.00;;;0.70;;
52248;SDS011;38541;48.130;8.378;2023-04-24T01:34:25;0.70;;;0.68;;
52248;SDS011;38541;48.130;8.378;2023-04-24T01:36:52;0.85;;;0.80;;
52248;SDS011;38541;48.130;8.378;2023-04-24T01:39:18;1.15;;;0.73;;
52248;SDS011;38541;48.130;8.378;2023-04-24T01:41:46;0.47;;;0.47;;
52248;SDS011;38541;48.130;8.378;2023-04-24T01:44:13;0.50;;;0.50;;
52248;SDS011;38541;48.130;8.378;2023-04-24T01:46:40;0.85;;;0.50;;
52248;SDS011;38541;48.130;8.378;2023-04-24T01:49:07;0.55;;;0.50;;
52248;SDS011;38541;48.130;8.378;2023-04-24T01:51:33;0.90;;;0.63;;
52248;SDS011;38541;48.130;8.378;2023-04-24T01:54:02;0.40;;;0.40;;
52248;SDS011;38541;48.130;8.378;2023-04-24T01:56:29;0.40;;;0.40;;
52248;SDS011;38541;48.130;8.378;2023-04-24T01:58:59;0.50;;;0.50;;
52248;SDS011;38541;48.130;8.378;2023-04-24T02:01:26;0.40;;;0.40;;
52248;SDS011;38541;48.130;8.378;2023-04-24T02:03:53;1.27;;;0.65;;
52248;SDS011;38541;48.130;8.378;2023-04-24T02:06:20;0.50;;;0.50;;
52248;SDS011;38541;48.130;8.378;2023-04-24T02:08:46;1.55;;;0.68;;
52248;SDS011;38541;48.130;8.378;2023-04-24T02:11:12;1.52;;;0.80;;
52248;SDS011;38541;48.130;8.378;2023-04-24T02:13:39;0.40;;;0.40;;
52248;SDS011;38541;48.130;8.378;2023-04-24T02:16:06;2.22;;;0.60;;
52248;SDS011;38541;48.130;8.378;2023-04-24T02:18:32;1.50;;;0.50;;
52248;SDS011;38541;48.130;8.378;2023-04-24T02:20:58;0.65;;;0.65;;
52248;SDS011;38541;48.130;8.378;2023-04-24T02:23:25;0.60;;;0.60;;
52248;SDS011;38541;48.130;8.378;2023-04-24T02:25:53;0.95;;;0.60;;
52248;SDS011;38541;48.130;8.378;2023-04-24T02:28:19;0.63;;;0.63;;
52248;SDS011;38541;48.130;8.378;2023-04-24T02:30:46;0.60;;;0.60;;
52248;SDS011;38541;48.130;8.378;2023-04-24T02:33:12;0.50;;;0.50;;
52248;SDS011;38541;48.130;8.378;2023-04-24T02:35:40;0.52;;;0.50;;
52248;SDS011;38541;48.130;8.378;2023-04-24T02:38:07;0.70;;;0.70;;
52248;SDS011;38541;48.130;8.378;2023-04-24T02:40:35;0.85;;;0.75;;
52248;SDS011;38541;48.130;8.378;2023-04-24T02:43:02;0.60;;;0.60;;
52248;SDS011;38541;48.130;8.378;2023-04-24T02:45:29;0.60;;;0.60;;
52248;SDS011;38541;48.130;8.378;2023-04-24T02:47:55;0.60;;;0.60;;
52248;SDS011;38541;48.130;8.378;2023-04-24T02:50:22;0.50;;;0.50;;
52248;SDS011;38541;48.130;8.378;2023-04-24T02:52:49;0.60;;;0.60;;
52248;SDS011;38541;48.130;8.378;2023-04-24T02:55:15;1.25;;;1.00;;
52248;SDS011;38541;48.130;8.378;2023-04-24T02:57:42;1.02;;;0.60;;
52248;SDS011;38541;48.130;8.378;2023-04-24T03:00:09;0.75;;;0.60;;
52248;SDS011;38541;48.130;8.378;2023-04-24T03:02:36;0.90;;;0.60;;
52248;SDS011;38541;48.130;8.378;2023-04-24T03:05:03;2.15;;;0.68;;
52248;SDS011;38541;48.130;8.378;2023-04-24T03:07:30;0.60;;;0.60;;
52248;SDS011;38541;48.130;8.378;2023-04-24T03:09:58;2.55;;;2.35;;
52248;SDS011;38541;48.130;8.378;2023-04-24T03:12:25;1.02;;;0.80;;
52248;SDS011;38541;48.130;8.378;2023-04-24T03:14:52;0.88;;;0.60;;
52248;SDS011;38541;48.130;8.378;2023-04-24T03:17:19;0.80;;;0.80;;
52248;SDS011;38541;48.130;8.378;2023-04-24T03:19:45;1.05;;;0.68;;
52248;SDS011;38541;48.130;8.378;2023-04-24T03:22:12;1.40;;;0.65;;
52248;SDS011;38541;48.130;8.378;2023-04-24T03:24:40;0.68;;;0.68;;
52248;SDS011;38541;48.130;8.378;2023-04-24T03:27:06;1.33;;;0.60;;
52248;SDS011;38541;48.130;8.378;2023-04-24T03:29:56;0.52;;;0.52;;
52248;SDS011;38541;48.130;8.378;2023-04-24T03:32:30;0.68;;;0.68;;
52248;SDS011;38541;48.130;8.378;2023-04-24T03:34:59;0.70;;;0.68;;
52248;SDS011;38541;48.130;8.378;2023-04-24T03:37:26;0.77;;;0.77;;
52248;SDS011;38541;48.130;8.378;2023-04-24T03:40:05;0.80;;;0.80;;
52248;SDS011;38541;48.130;8.378;2023-04-24T03:42:34;0.70;;;0.50;;
52248;SDS011;38541;48.130;8.378;2023-04-24T03:45:04;1.02;;;0.52;;
52248;SDS011;38541;48.130;8.378;2023-04-24T03:47:34;0.50;;;0.50;;
52248;SDS011;38541;48.130;8.378;2023-04-24T03:50:03;0.77;;;0.50;;
52248;SDS011;38541;48.130;8.378;2023-04-24T03:52:31;0.60;;;0.52;;
52248;SDS011;38541;48.130;8.378;2023-04-24T03:54:58;0.50;;;0.50;;
52248;SDS011;38541;48.130;8.378;2023-04-24T03:57:25;0.40;;;0.40;;
52248;SDS011;38541;48.130;8.378;2023-04-24T04:00:05;0.50;;;0.50;;
52248;SDS011;38541;48.130;8.378;2023-04-24T04:02:39;0.50;;;0.50;;
52248;SDS011;38541;48.130;8.378;2023-04-24T04:05:08;0.40;;;0.40;;
52248;SDS011;38541;48.130;8.378;2023-04-24T04:07:35;1.13;;;0.80;;
52248;SDS011;38541;48.130;8.378;2023-04-24T04:10:02;0.80;;;0.80;;
52248;SDS011;38541;48.130;8.378;2023-04-24T04:12:29;0.68;;;0.50;;
52248;SDS011;38541;48.130;8.378;2023-04-24T04:14:57;0.52;;;0.52;;
52248;SDS011;38541;48.130;8.378;2023-04-24T04:17:23;0.50;;;0.50;;
52248;SDS011;38541;48.130;8.378;2023-04-24T04:19:50;0.88;;;0.50;;
52248;SDS011;38541;48.130;8.378;2023-04-24T04:22:17;0.60;;;0.60;;
52248;SDS011;38541;48.130;8.378;2023-04-24T04:24:47;0.93;;;0.60;;
52248;SDS011;38541;48.130;8.378;2023-04-24T04:27:14;1.20;;;1.20;;
52248;SDS011;38541;48.130;8.378;2023-04-24T04:30:03;1.42;;;1.33;;
52248;SDS011;38541;48.130;8.378;2023-04-24T04:32:38;1.20;;;1.20;;
52248;SDS011;38541;48.130;8.378;2023-04-24T04:35:05;1.20;;;1.20;;
52248;SDS011;38541;48.130;8.378;2023-04-24T04:37:33;1.33;;;1.00;;
52248;SDS011;38541;48.130;8.378;2023-04-24T04:40:20;1.40;;;1.13;;
52248;SDS011;38541;48.130;8.378;2023-04-24T04:42:54;1.05;;;1.05;;
52248;SDS011;38541;48.130;8.378;2023-04-24T04:45:22;1.40;;;1.13;;
52248;SDS011;38541;48.130;8.378;2023-04-24T04:48:10;1.80;;;1.08;;
52248;SDS011;38541;48.130;8.378;2023-04-24T04:50:40;1.88;;;1.00;;
52248;SDS011;38541;48.130;8.378;2023-04-24T04:53:07;1.40;;;1.30;;
52248;SDS011;38541;48.130;8.378;2023-04-24T04:55:37;1.20;;;1.10;;
52248;SDS011;38541;48.130;8.378;2023-04-24T04:58:14;0.90;;;0.90;;
52248;SDS011;38541;48.130;8.378;2023-04-24T05:00:42;1.10;;;1.10;;
52248;SDS011;38541;48.130;8.378;2023-04-24T05:03:16;1.67;;;1.25;;
52248;SDS011;38541;48.130;8.378;2023-04-24T05:05:52;1.40;;;1.30;;
52248;SDS011;38541;48.130;8.378;2023-04-24T05:08:19;1.40;;;1.30;;
52248;SDS011;38541;48.130;8.378;2023-04-24T05:10:53;1.98;;;1.25;;
52248;SDS011;38541;48.130;8.378;2023-04-24T05:13:21;1.63;;;1.50;;
52248;SDS011;38541;48.130;8.378;2023-04-24T05:16:08;1.63;;;1.52;;
52248;SDS011;38541;48.130;8.378;2023-04-24T05:18:35;2.03;;;1.75;;
52248;SDS011;38541;48.130;8.378;2023-04-24T05:21:02;1.30;;;1.20;;
52248;SDS011;38541;48.130;8.378;2023-04-24T05:23:29;1.35;;;1.25;;
52248;SDS011;38541;48.130;8.378;2023-04-24T05:25:56;2.63;;;1.73;;
52248;SDS011;38541;48.130;8.378;2023-04-24T05:28:23;2.83;;;2.42;;
52248;SDS011;38541;48.130;8.378;2023-04-24T05:31:03;3.90;;;2.10;;
52248;SDS011;38541;48.130;8.378;2023-04-24T05:33:30;3.15;;;2.70;;
52248;SDS011;38541;48.130;8.378;2023-04-24T05:35:56;1.83;;;1.73;;
52248;SDS011;38541;48.130;8.378;2023-04-24T05:38:24;2.03;;;1.83;;
52248;SDS011;38541;48.130;8.378;2023-04-24T05:40:50;1.92;;;1.67;;
52248;SDS011;38541;48.130;8.378;2023-04-24T05:43:17;2.80;;;1.38;;
52248;SDS011;38541;48.130;8.378;2023-04-24T05:45:43;1.35;;;1.33;;
52248;SDS011;38541;48.130;8.378;2023-04-24T05:48:10;1.30;;;1.20;;
52248;SDS011;38541;48.130;8.378;2023-04-24T05:50:37;1.73;;;1.50;;
52248;SDS011;38541;48.130;8.378;2023-04-24T05:53:04;2.75;;;1.75;;
52248;SDS011;38541;48.130;8.378;2023-04-24T05:55:34;1.40;;;1.30;;
52248;SDS011;38541;48.130;8.378;2023-04-24T05:58:02;1.77;;;1.40;;
52248;SDS011;38541;48.130;8.378;2023-04-24T06:00:29;1.25;;;1.25;;
52248;SDS011;38541;48.130;8.378;2023-04-24T06:03:03;2.20;;;1.35;;
52248;SDS011;38541;48.130;8.378;2023-04-24T06:05:31;1.40;;;1.30;;
52248;SDS011;38541;48.130;8.378;2023-04-24T06:07:57;1.58;;;1.35;;
52248;SDS011;38541;48.130;8.378;2023-04-24T06:10:29;1.35;;;1.25;;
52248;SDS011;38541;48.130;8.378;2023-04-24T06:12:56;1.40;;;1.30;;
52248;SDS011;38541;48.130;8.378;2023-04-24T06:15:28;1.55;;;1.40;;
52248;SDS011;38541;48.130;8.378;2023-04-24T06:18:19;1.58;;;1.10;;
52248;SDS011;38541;48.130;8.378;2023-04-24T06:20:47;1.08;;;1.05;;
52248;SDS011;38541;48.130;8.378;2023-04-24T06:23:14;1.33;;;1.23;;
52248;SDS011;38541;48.130;8.378;2023-04-24T06:25:40;1.40;;;1.30;;
52248;SDS011;38541;48.130;8.378;2023-04-24T06:28:07;1.45;;;1.35;;
52248;SDS011;38541;48.130;8.378;2023-04-24T06:30:34;1.92;;;1.48;;
52248;SDS011;38541;48.130;8.378;2023-04-24T06:33:01;1.85;;;1.50;;
52248;SDS011;38541;48.130;8.378;2023-04-24T06:35:45;1.38;;;1.20;;
52248;SDS011;38541;48.130;8.378;2023-04-24T06:38:11;1.15;;;1.13;;
52248;SDS011;38541;48.130;8.378;2023-04-24T06:40:38;1.27;;;1.17;;
52248;SDS011;38541;48.130;8.378;2023-04-24T06:43:04;1.75;;;1.42;;
52248;SDS011;38541;48.130;8.378;2023-04-24T06:45:32;1.27;;;1.20;;
52248;SDS011;38541;48.130;8.378;2023-04-24T06:47:59;1.60;;;1.50;;
52248;SDS011;38541;48.130;8.378;2023-04-24T06:50:26;1.67;;;1.40;;
52248;SDS011;38541;48.130;8.378;2023-04-24T06:52:53;1.92;;;1.83;;
52248;SDS011;38541;48.130;8.378;2023-04-24T06:55:19;1.83;;;1.60;;
52248;SDS011;38541;48.130;8.378;2023-04-24T06:57:46;1.42;;;1.38;;
52248;SDS011;38541;48.130;8.378;2023-04-24T07:00:13;2.60;;;1.75;;
52248;SDS011;38541;48.130;8.378;2023-04-24T07:02:40;3.85;;;2.35;;
52248;SDS011;38541;48.130;8.378;2023-04-24T07:05:07;2.00;;;1.80;;
52248;SDS011;38541;48.130;8.378;2023-04-24T07:07:34;1.85;;;1.70;;
52248;SDS011;38541;48.130;8.378;2023-04-24T07:10:04;2.10;;;1.77;;
52248;SDS011;38541;48.130;8.378;2023-04-24T07:12:31;1.50;;;1.40;;
52248;SDS011;38541;48.130;8.378;2023-04-24T07:14:58;2.42;;;1.75;;
52248;SDS011;38541;48.130;8.378;2023-04-24T07:17:26;2.88;;;1.73;;
52248;SDS011;38541;48.130;8.378;2023-04-24T07:19:53;2.15;;;1.95;;
52248;SDS011;38541;48.130;8.378;2023-04-24T07:22:19;1.50;;;1.40;;
52248;SDS011;38541;48.130;8.378;2023-04-24T07:24:46;2.88;;;1.67;;
52248;SDS011;38541;48.130;8.378;2023-04-24T07:27:12;2.25;;;1.95;;
52248;SDS011;38541;48.130;8.378;2023-04-24T07:29:41;2.60;;;2.17;;
52248;SDS011;38541;48.130;8.378;2023-04-24T07:32:08;2.88;;;1.52;;
52248;SDS011;38541;48.130;8.378;2023-04-24T07:34:35;1.40;;;1.30;;
52248;SDS011;38541;48.130;8.378;2023-04-24T07:37:01;1.50;;;1.40;;
52248;SDS011;38541;48.130;8.378;2023-04-24T07:39:29;2.20;;;2.00;;
52248;SDS011;38541;48.130;8.378;2023-04-24T07:41:55;3.80;;;2.60;;
52248;SDS011;38541;48.130;8.378;2023-04-24T07:44:22;2.53;;;2.28;;
52248;SDS011;38541;48.130;8.378;2023-04-24T07:46:49;1.98;;;1.55;;
52248;SDS011;38541;48.130;8.378;2023-04-24T07:49:15;1.92;;;1.80;;
52248;SDS011;38541;48.130;8.378;2023-04-24T07:51:45;4.18;;;2.50;;
52248;SDS011;38541;48.130;8.378;2023-04-24T07:54:12;3.80;;;2.30;;
52248;SDS011;38541;48.130;8.378;2023-04-24T07:56:38;1.80;;;1.70;;
52248;SDS011;38541;48.130;8.378;2023-04-24T07:59:05;2.40;;;2.20;;
52248;SDS011;38541;48.130;8.378;2023-04-24T08:01:32;2.20;;;2.00;;
52248;SDS011;38541;48.130;8.378;2023-04-24T08:03:59;2.45;;;2.25;;
52248;SDS011;38541;48.130;8.378;2023-04-24T08:06:26;2.17;;;1.98;;
52248;SDS011;38541;48.130;8.378;2023-04-24T08:08:57;2.10;;;1.90;;
52248;SDS011;38541;48.130;8.378;2023-04-24T08:11:25;2.60;;;2.00;;
52248;SDS011;38541;48.130;8.378;2023-04-24T08:13:52;2.50;;;2.30;;
52248;SDS011;38541;48.130;8.378;2023-04-24T08:16:18;2.63;;;2.30;;
52248;SDS011;38541;48.130;8.378;2023-04-24T08:18:45;4.07;;;2.35;;
52248;SDS011;38541;48.130;8.378;2023-04-24T08:21:12;2.30;;;2.10;;
52248;SDS011;38541;48.130;8.378;2023-04-24T08:23:43;2.13;;;1.92;;
52248;SDS011;38541;48.130;8.378;2023-04-24T08:26:10;2.13;;;1.92;;
52248;SDS011;38541;48.130;8.378;2023-04-24T08:28:38;4.47;;;2.45;;
52248;SDS011;38541;48.130;8.378;2023-04-24T08:31:05;2.33;;;2.10;;
52248;SDS011;38541;48.130;8.378;2023-04-24T08:33:31;2.60;;;2.20;;
52248;SDS011;38541;48.130;8.378;2023-04-24T08:36:02;8.27;;;2.40;;
52248;SDS011;38541;48.130;8.378;2023-04-24T08:38:29;3.00;;;2.65;;
52248;SDS011;38541;48.130;8.378;2023-04-24T08:40:56;2.05;;;1.92;;
52248;SDS011;38541;48.130;8.378;2023-04-24T08:43:24;2.72;;;2.35;;
52248;SDS011;38541;48.130;8.378;2023-04-24T08:45:52;5.03;;;2.72;;
52248;SDS011;38541;48.130;8.378;2023-04-24T08:48:22;1.95;;;1.85;;
52248;SDS011;38541;48.130;8.378;2023-04-24T08:50:57;3.75;;;2.28;;
52248;SDS011;38541;48.130;8.378;2023-04-24T08:53:25;2.35;;;1.70;;
52248;SDS011;38541;48.130;8.378;2023-04-24T08:55:52;2.53;;;1.73;;
52248;SDS011;38541;48.130;8.378;2023-04-24T08:58:21;2.63;;;2.15;;
52248;SDS011;38541;48.130;8.378;2023-04-24T09:00:49;2.47;;;2.28;;
52248;SDS011;38541;48.130;8.378;2023-04-24T09:03:16;3.95;;;2.60;;
52248;SDS011;38541;48.130;8.378;2023-04-24T09:05:44;6.32;;;3.45;;
52248;SDS011;38541;48.130;8.378;2023-04-24T09:08:13;3.22;;;2.40;;
52248;SDS011;38541;48.130;8.378;2023-04-24T09:10:40;3.22;;;2.67;;
52248;SDS011;38541;48.130;8.378;2023-04-24T09:13:07;3.17;;;2.17;;
52248;SDS011;38541;48.130;8.378;2023-04-24T09:15:38;5.15;;;2.08;;
52248;SDS011;38541;48.130;8.378;2023-04-24T09:18:05;4.13;;;2.40;;
52248;SDS011;38541;48.130;8.378;2023-04-24T09:20:31;4.28;;;2.75;;
52248;SDS011;38541;48.130;8.378;2023-04-24T09:22:58;3.28;;;2.78;;
52248;SDS011;38541;48.130;8.378;2023-04-24T09:25:32;3.63;;;2.42;;
52248;SDS011;38541;48.130;8.378;2023-04-24T09:28:00;2.47;;;2.05;;
52248;SDS011;38541;48.130;8.378;2023-04-24T09:30:29;2.35;;;2.15;;
52248;SDS011;38541;48.130;8.378;2023-04-24T09:33:09;2.25;;;2.05;;
52248;SDS011;38541;48.130;8.378;2023-04-24T09:35:37;2.83;;;2.58;;
52248;SDS011;38541;48.130;8.378;2023-04-24T09:38:06;4.82;;;2.90;;
52248;SDS011;38541;48.130;8.378;2023-04-24T09:40:34;3.22;;;2.70;;
52248;SDS011;38541;48.130;8.378;2023-04-24T09:43:01;2.88;;;2.40;;
52248;SDS011;38541;48.130;8.378;2023-04-24T09:45:35;2.60;;;2.40;;
52248;SDS011;38541;48.130;8.378;2023-04-24T09:48:02;2.15;;;1.95;;
52248;SDS011;38541;48.130;8.378;2023-04-24T09:50:30;2.85;;;1.95;;
52248;SDS011;38541;48.130;8.378;2023-04-24T09:52:59;2.00;;;1.90;;
52248;SDS011;38541;48.130;8.378;2023-04-24T09:55:30;2.00;;;1.90;;
52248;SDS011;38541;48.130;8.378;2023-04-24T09:57:58;2.25;;;2.03;;
52248;SDS011;38541;48.130;8.378;2023-04-24T10:00:32;3.03;;;2.13;;
52248;SDS011;38541;48.130;8.378;2023-04-24T10:05:28;2.33;;;2.13;;
52248;SDS011;38541;48.130;8.378;2023-04-24T10:08:05;4.38;;;2.70;;
52248;SDS011;38541;48.130;8.378;2023-04-24T10:10:35;3.53;;;2.65;;
52248;SDS011;38541;48.130;8.378;2023-04-24T10:13:05;3.75;;;2.08;;
52248;SDS011;38541;48.130;8.378;2023-04-24T10:15:33;2.90;;;2.17;;
52248;SDS011;38541;48.130;8.378;2023-04-24T10:18:01;6.72;;;2.50;;
52248;SDS011;38541;48.130;8.378;2023-04-24T10:20:28;4.45;;;2.08;;
52248;SDS011;38541;48.130;8.378;2023-04-24T10:22:57;5.05;;;2.40;;
52248;SDS011;38541;48.130;8.378;2023-04-24T10:25:25;2.70;;;2.15;;
52248;SDS011;38541;48.130;8.378;2023-04-24T10:27:53;3.08;;;2.53;;
52248;SDS011;38541;48.130;8.378;2023-04-24T10:30:23;1.83;;;1.73;;
52248;SDS011;38541;48.130;8.378;2023-04-24T10:32:50;5.20;;;2.25;;
52248;SDS011;38541;48.130;8.378;2023-04-24T10:35:16;2.10;;;1.90;;
52248;SDS011;38541;48.130;8.378;2023-04-24T10:38:03;2.20;;;1.83;;
52248;SDS011;38541;48.130;8.378;2023-04-24T10:40:34;2.08;;;1.88;;
52248;SDS011;38541;48.130;8.378;2023-04-24T10:43:03;3.42;;;2.03;;
52248;SDS011;38541;48.130;8.378;2023-04-24T10:45:32;2.22;;;1.90;;
52248;SDS011;38541;48.130;8.378;2023-04-24T10:47:59;3.47;;;1.75;;
52248;SDS011;38541;48.130;8.378;2023-04-24T10:51:04;2.55;;;1.50;;
52248;SDS011;38541;48.130;8.378;2023-04-24T10:53:27;1.60;;;1.50;;
52248;SDS011;38541;48.130;8.378;2023-04-24T10:55:59;2.97;;;1.73;;
52248;SDS011;38541;48.130;8.378;2023-04-24T10:58:37;2.38;;;1.30;;
52248;SDS011;38541;48.130;8.378;2023-04-24T11:01:04;2.22;;;1.70;;
52248;SDS011;38541;48.130;8.378;2023-04-24T11:03:31;1.55;;;1.45;;
52248;SDS011;38541;48.130;8.378;2023-04-24T11:06:02;2.42;;;1.70;;
52248;SDS011;38541;48.130;8.378;2023-04-24T11:08:37;2.33;;;1.25;;
52248;SDS011;38541;48.130;8.378;2023-04-24T11:11:12;1.25;;;1.15;;
52248;SDS011;38541;48.130;8.378;2023-04-24T11:19:22;1.10;;;1.00;;
52248;SDS011;38541;48.130;8.378;2023-04-24T11:22:03;0.85;;;0.80;;
52248;SDS011;38541;48.130;8.378;2023-04-24T11:24:38;0.93;;;0.90;;
52248;SDS011;38541;48.130;8.378;2023-04-24T11:27:19;1.98;;;1.30;;
52248;SDS011;38541;48.130;8.378;2023-04-24T11:29:49;1.45;;;1.35;;
52248;SDS011;38541;48.130;8.378;2023-04-24T11:32:23;0.93;;;0.93;;
52248;SDS011;38541;48.130;8.378;2023-04-24T11:37:23;0.93;;;0.90;;
52248;SDS011;38541;48.130;8.378;2023-04-24T11:39:51;2.45;;;1.20;;
52248;SDS011;38541;48.130;8.378;2023-04-24T11:42:19;1.20;;;1.10;;
52248;SDS011;38541;48.130;8.378;2023-04-24T11:44:52;4.75;;;2.10;;
52248;SDS011;38541;48.130;8.378;2023-04-24T11:47:19;2.70;;;1.20;;
52248;SDS011;38541;48.130;8.378;2023-04-24T11:49:45;1.50;;;1.38;;
52248;SDS011;38541;48.130;8.378;2023-04-24T11:52:15;2.80;;;1.27;;
52248;SDS011;38541;48.130;8.378;2023-04-24T11:54:48;1.05;;;0.80;;
52248;SDS011;38541;48.130;8.378;2023-04-24T11:57:18;1.50;;;1.20;;
52248;SDS011;38541;48.130;8.378;2023-04-24T11:59:48;2.20;;;1.30;;
52248;SDS011;38541;48.130;8.378;2023-04-24T12:02:21;1.20;;;1.05;;
52248;SDS011;38541;48.130;8.378;2023-04-24T12:04:55;2.55;;;1.15;;
52248;SDS011;38541;48.130;8.378;2023-04-24T12:07:22;2.22;;;1.63;;
52248;SDS011;38541;48.130;8.378;2023-04-24T12:09:56;1.90;;;1.27;;
52248;SDS011;38541;48.130;8.378;2023-04-24T12:12:27;1.58;;;1.00;;
52248;SDS011;38541;48.130;8.378;2023-04-24T12:14:58;1.73;;;1.38;;
52248;SDS011;38541;48.130;8.378;2023-04-24T12:20:03;1.10;;;1.00;;
52248;SDS011;38541;48.130;8.378;2023-04-24T12:22:50;1.00;;;1.00;;
52248;SDS011;38541;48.130;8.378;2023-04-24T12:25:21;2.58;;;1.20;;
52248;SDS011;38541;48.130;8.378;2023-04-24T12:27:53;0.85;;;0.85;;
52248;SDS011;38541;48.130;8.378;2023-04-24T12:30:29;1.40;;;1.30;;
52248;SDS011;38541;48.130;8.378;2023-04-24T12:33:20;1.77;;;1.10;;
52248;SDS011;38541;48.130;8.378;2023-04-24T12:35:47;1.77;;;1.60;;
52248;SDS011;38541;48.130;8.378;2023-04-24T12:38:21;1.58;;;1.45;;
52248;SDS011;38541;48.130;8.378;2023-04-24T12:41:00;1.33;;;1.23;;
52248;SDS011;38541;48.130;8.378;2023-04-24T12:43:35;1.15;;;1.05;;
52248;SDS011;38541;48.130;8.378;2023-04-24T12:46:03;2.95;;;1.80;;
52248;SDS011;38541;48.130;8.378;2023-04-24T12:48:30;1.52;;;1.35;;
52248;SDS011;38541;48.130;8.378;2023-04-24T12:50:58;1.23;;;1.13;;
52248;SDS011;38541;48.130;8.378;2023-04-24T12:53:27;2.35;;;1.27;;
52248;SDS011;38541;48.130;8.378;2023-04-24T12:55:55;1.85;;;1.58;;
52248;SDS011;38541;48.130;8.378;2023-04-24T12:58:22;1.10;;;1.10;;
52248;SDS011;38541;48.130;8.378;2023-04-24T13:00:48;1.30;;;1.20;;
52248;SDS011;38541;48.130;8.378;2023-04-24T13:03:15;1.70;;;1.60;;
52248;SDS011;38541;48.130;8.378;2023-04-24T13:05:42;2.70;;;1.60;;
52248;SDS011;38541;48.130;8.378;2023-04-24T13:08:09;2.10;;;1.80;;
52248;SDS011;38541;48.130;8.378;2023-04-24T13:10:36;1.55;;;1.45;;
52248;SDS011;38541;48.130;8.378;2023-04-24T13:13:02;1.48;;;1.35;;
52248;SDS011;38541;48.130;8.378;2023-04-24T13:15:29;3.58;;;1.73;;
52248;SDS011;38541;48.130;8.378;2023-04-24T13:17:56;2.53;;;1.40;;
52248;SDS011;38541;48.130;8.378;2023-04-24T13:20:22;2.00;;;1.80;;
52248;SDS011;38541;48.130;8.378;2023-04-24T13:22:49;3.20;;;1.80;;
52248;SDS011;38541;48.130;8.378;2023-04-24T13:25:15;3.85;;;1.67;;
52248;SDS011;38541;48.130;8.378;2023-04-24T13:27:43;2.33;;;1.80;;
52248;SDS011;38541;48.130;8.378;2023-04-24T13:30:10;2.55;;;1.95;;
52248;SDS011;38541;48.130;8.378;2023-04-24T13:32:36;3.53;;;1.98;;
52248;SDS011;38541;48.130;8.378;2023-04-24T13:35:03;2.50;;;2.03;;
52248;SDS011;38541;48.130;8.378;2023-04-24T13:37:30;2.38;;;2.05;;
52248;SDS011;38541;48.130;8.378;2023-04-24T13:39:56;3.00;;;1.52;;
52248;SDS011;38541;48.130;8.378;2023-04-24T13:42:23;3.65;;;1.75;;
52248;SDS011;38541;48.130;8.378;2023-04-24T13:44:49;1.98;;;1.60;;
52248;SDS011;38541;48.130;8.378;2023-04-24T13:47:17;1.40;;;1.30;;
52248;SDS011;38541;48.130;8.378;2023-04-24T13:49:43;1.30;;;1.20;;
52248;SDS011;38541;48.130;8.378;2023-04-24T13:52:10;1.67;;;1.58;;
52248;SDS011;38541;48.130;8.378;2023-04-24T13:54:36;1.15;;;1.13;;
52248;SDS011;38541;48.130;8.378;2023-04-24T13:57:03;1.77;;;1.15;;
52248;SDS011;38541;48.130;8.378;2023-04-24T13:59:30;1.08;;;1.08;;
52248;SDS011;38541;48.130;8.378;2023-04-24T14:01:56;1.60;;;1.40;;
52248;SDS011;38541;48.130;8.378;2023-04-24T14:04:23;1.38;;;1.27;;
52248;SDS011;38541;48.130;8.378;2023-04-24T14:06:50;4.28;;;2.15;;
52248;SDS011;38541;48.130;8.378;2023-04-24T14:09:17;1.70;;;1.52;;
52248;SDS011;38541;48.130;8.378;2023-04-24T14:11:43;3.40;;;1.50;;
52248;SDS011;38541;48.130;8.378;2023-04-24T14:14:10;1.98;;;1.50;;
52248;SDS011;38541;48.130;8.378;2023-04-24T14:16:39;1.33;;;1.23;;
52248;SDS011;38541;48.130;8.378;2023-04-24T14:19:05;2.20;;;2.00;;
52248;SDS011;38541;48.130;8.378;2023-04-24T14:21:32;2.08;;;1.58;;
52248;SDS011;38541;48.130;8.378;2023-04-24T14:23:59;1.92;;;1.75;;
52248;SDS011;38541;48.130;8.378;2023-04-24T14:26:26;1.52;;;1.40;;
52248;SDS011;38541;48.130;8.378;2023-04-24T14:28:52;1.60;;;1.50;;
52248;SDS011;38541;48.130;8.378;2023-04-24T14:31:36;2.83;;;1.98;;
52248;SDS011;38541;48.130;8.378;2023-04-24T14:34:03;6.15;;;2.10;;
52248;SDS011;38541;48.130;8.378;2023-04-24T14:36:29;4.18;;;1.80;;
52248;SDS011;38541;48.130;8.378;2023-04-24T14:38:57;6.45;;;1.98;;
52248;SDS011;38541;48.130;8.378;2023-04-24T14:41:24;1.48;;;1.38;;
52248;SDS011;38541;48.130;8.378;2023-04-24T14:43:50;1.65;;;1.55;;
52248;SDS011;38541;48.130;8.378;2023-04-24T14:46:16;3.65;;;2.00;;
52248;SDS011;38541;48.130;8.378;2023-04-24T14:48:43;1.05;;;1.05;;
52248;SDS011;38541;48.130;8.378;2023-04-24T14:51:10;1.80;;;1.30;;
52248;SDS011;38541;48.130;8.378;2023-04-24T14:53:36;1.38;;;1.27;;
52248;SDS011;38541;48.130;8.378;2023-04-24T14:56:03;1.40;;;1.30;;
52248;SDS011;38541;48.130;8.378;2023-04-24T14:58:29;4.13;;;1.40;;
52248;SDS011;38541;48.130;8.378;2023-04-24T15:00:55;1.75;;;1.38;;
52248;SDS011;38541;48.130;8.378;2023-04-24T15:03:22;1.67;;;1.55;;
52248;SDS011;38541;48.130;8.378;2023-04-24T15:05:49;1.33;;;1.27;;
52248;SDS011;38541;48.130;8.378;2023-04-24T15:08:16;1.98;;;1.50;;
52248;SDS011;38541;48.130;8.378;2023-04-24T15:10:43;2.25;;;1.92;;